Time;durP1;ratioP1;P1;durP2;ratioP2;P2;SDS_P1;SDS_P2;PMS_P1;PMS_P2;Temp;Humidity;BMP_temperature;BMP_pressure;BME280_temperature;BME280_humidity;BME280_pressure;Samples;Min_cycle;Max_cycle;Signal;HPM_P1;HPM_P2
2021/12/08 00:02:36;;;;;;;7.53;3.17;;;;;;;4.99;100.00;99126.06;4978471;28;20410;-54
2021/12/08 00:05:24;;;;;;;6.18;2.90;;;;;;;5.00;100.00;99143.88;4953248;29;20191;-45
2021/12/08 00:08:15;;;;;;;7.75;2.58;;;;;;;5.00;100.00;99139.28;4953521;28;20069;-54
2021/12/08 00:14:13;;;;;;;7.32;3.05;;;;;;;4.95;100.00;99130.38;4910277;29;20456;-49
2021/12/08 00:17:01;;;;;;;6.65;3.03;;;;;;;4.95;100.00;99138.47;4910072;29;20062;-51
2021/12/08 00:19:49;;;;;;;6.40;2.78;;;;;;;4.95;100.00;99130.38;4903590;29;20530;-52
2021/12/08 00:22:36;;;;;;;6.97;2.90;;;;;;;4.97;100.00;99114.75;4911884;29;20146;-48
2021/12/08 00:25:24;;;;;;;6.70;3.17;;;;;;;4.95;100.00;99115.00;4911722;29;20064;-49
2021/12/08 00:28:12;;;;;;;6.03;3.00;;;;;;;4.96;100.00;99115.84;4909153;29;20056;-51
2021/12/08 00:31:02;;;;;;;6.03;2.72;;;;;;;5.01;100.00;99129.31;4908784;29;20055;-51
2021/12/08 00:33:50;;;;;;;4.63;2.65;;;;;;;4.99;100.00;99134.16;4912137;29;20096;-50
2021/12/08 00:36:44;;;;;;;6.28;2.75;;;;;;;4.96;100.00;99132.81;4911757;29;20534;-49
2021/12/08 00:39:33;;;;;;;5.85;2.50;;;;;;;4.92;100.00;99123.66;4909556;29;20507;-52
2021/12/08 00:42:21;;;;;;;6.75;2.97;;;;;;;4.95;100.00;99130.38;4910080;29;20048;-49
2021/12/08 00:45:10;;;;;;;7.93;2.90;;;;;;;4.95;100.00;99133.88;4909765;29;20063;-50
2021/12/08 00:47:58;;;;;;;5.88;2.47;;;;;;;4.94;100.00;99131.47;4911135;29;20056;-51
2021/12/08 00:50:46;;;;;;;4.90;2.58;;;;;;;4.97;100.00;99120.13;4927684;29;20058;-53
2021/12/08 00:53:34;;;;;;;5.68;2.60;;;;;;;5.02;100.00;99131.72;4952703;29;20050;-52
2021/12/08 00:56:22;;;;;;;5.38;2.40;;;;;;;5.01;100.00;99132.81;4955896;28;20054;-51
2021/12/08 00:59:10;;;;;;;5.53;2.60;;;;;;;5.18;100.00;99137.09;4953290;28;20055;-51
2021/12/08 01:02:02;;;;;;;5.88;2.70;;;;;;;5.12;100.00;99128.19;4955466;28;20055;-53
2021/12/08 01:04:50;;;;;;;4.82;2.65;;;;;;;5.07;100.00;99137.09;4951609;29;20106;-54
2021/12/08 01:07:38;;;;;;;6.20;2.50;;;;;;;5.03;100.00;99138.75;4952572;28;20058;-49
2021/12/08 01:10:27;;;;;;;4.53;2.33;;;;;;;5.04;100.00;99151.16;4952439;28;20043;-48
2021/12/08 01:13:24;;;;;;;5.85;2.40;;;;;;;5.05;100.00;99150.09;4934415;29;20159;-49
2021/12/08 01:16:13;;;;;;;6.07;2.42;;;;;;;5.06;100.00;99150.91;4933602;29;20063;-49
2021/12/08 01:18:53;;;;;;;3.85;2.20;;;;;;;5.08;100.00;99157.63;4949947;28;20051;-47
2021/12/08 01:21:40;;;;;;;6.63;2.47;;;;;;;5.12;100.00;99158.72;4952606;29;20055;-50
2021/12/08 01:24:28;;;;;;;4.38;1.92;;;;;;;5.16;100.00;99166.25;4952693;28;20127;-49
2021/12/08 01:27:16;;;;;;;4.70;2.28;;;;;;;5.18;100.00;99154.09;4952382;29;20498;-49
2021/12/08 01:30:06;;;;;;;6.55;2.75;;;;;;;5.18;100.00;99164.09;4974632;28;20402;-48
2021/12/08 01:32:55;;;;;;;7.03;2.30;;;;;;;5.16;100.00;99161.66;4972895;28;20050;-49
2021/12/08 01:35:43;;;;;;;2.67;1.80;;;;;;;5.24;100.00;99176.50;4972043;28;20067;-49
2021/12/08 01:38:32;;;;;;;2.50;1.70;;;;;;;5.34;100.00;99168.38;4973781;28;20497;-49
2021/12/08 01:41:22;;;;;;;2.10;1.67;;;;;;;5.38;100.00;99153.22;4975030;28;20045;-48
2021/12/08 01:47:16;;;;;;;2.97;1.80;;;;;;;5.61;100.00;99165.31;4974908;28;20059;-52
2021/12/08 01:50:05;;;;;;;4.78;1.75;;;;;;;5.80;100.00;99170.94;4974305;28;20051;-49
2021/12/08 01:52:53;;;;;;;2.97;1.60;;;;;;;5.86;100.00;99171.69;4975277;28;20066;-48
2021/12/08 01:55:41;;;;;;;2.58;1.88;;;;;;;5.90;100.00;99189.00;4972361;28;20117;-50
2021/12/08 01:58:28;;;;;;;3.08;1.98;;;;;;;5.93;100.00;99181.13;4957819;29;20051;-50
2021/12/08 02:01:12;;;;;;;2.53;1.65;;;;;;;5.89;100.00;99177.38;4957083;28;20053;-49
2021/12/08 02:04:04;;;;;;;4.53;2.30;;;;;;;5.89;100.00;99177.38;4955463;28;20383;-47
2021/12/08 02:06:51;;;;;;;2.80;1.52;;;;;;;5.87;100.00;99170.59;4955822;28;20059;-48
2021/12/08 02:09:40;;;;;;;3.33;1.80;;;;;;;5.87;100.00;99184.94;4936523;28;20067;-48
2021/12/08 02:12:29;;;;;;;3.75;1.52;;;;;;;5.81;100.00;99183.34;4973143;28;20050;-48
2021/12/08 02:15:18;;;;;;;2.63;1.60;;;;;;;5.78;100.00;99194.72;4980362;28;20498;-47
2021/12/08 02:18:08;;;;;;;4.22;2.22;;;;;;;5.78;100.00;99202.81;4975857;28;20043;-48
2021/12/08 02:21:05;;;;;;;4.05;1.88;;;;;;;5.83;100.00;99191.19;4971471;28;20055;-45
2021/12/08 02:23:54;;;;;;;3.25;1.70;;;;;;;5.83;100.00;99192.00;4975021;28;20094;-48
2021/12/08 02:26:44;;;;;;;4.05;1.90;;;;;;;5.83;100.00;99202.00;4963893;28;20047;-49
2021/12/08 02:29:44;;;;;;;6.28;1.98;;;;;;;5.86;100.00;99206.84;4956390;28;20046;-49
2021/12/08 02:47:54;;;;;;;6.93;1.95;;;;;;;5.97;100.00;99221.97;4937177;29;20043;-49
2021/12/08 02:50:43;;;;;;;5.95;2.03;;;;;;;5.96;100.00;99225.75;4944582;28;20055;-49
2021/12/08 02:53:32;;;;;;;5.47;1.98;;;;;;;5.93;100.00;99229.78;4955104;28;20822;-45
2021/12/08 02:56:20;;;;;;;6.28;2.15;;;;;;;5.85;100.00;99235.78;4974275;28;20043;-48
2021/12/08 02:59:08;;;;;;;3.70;1.85;;;;;;;5.90;100.00;99233.03;4974808;28;20051;-49
2021/12/08 03:01:56;;;;;;;6.13;2.35;;;;;;;5.87;100.00;99239.00;4971808;28;20496;-49
2021/12/08 03:04:45;;;;;;;8.38;2.42;;;;;;;5.83;100.00;99246.03;4974497;28;20196;-49
2021/12/08 03:07:33;;;;;;;6.18;2.22;;;;;;;5.80;100.00;99243.91;4936498;29;20059;-49
2021/12/08 03:10:25;;;;;;;5.47;2.25;;;;;;;5.80;100.00;99241.19;4940498;28;20446;-50
2021/12/08 03:13:13;;;;;;;5.95;2.28;;;;;;;5.79;100.00;99249.56;4949136;28;20055;-48
2021/12/08 03:16:01;;;;;;;5.85;2.42;;;;;;;5.80;100.00;99246.59;4954197;29;20628;-50
2021/12/08 03:18:48;;;;;;;5.43;2.20;;;;;;;5.81;100.00;99242.81;4954762;29;20478;-48
2021/12/08 03:21:37;;;;;;;3.50;1.95;;;;;;;5.87;100.00;99236.31;4955928;29;20047;-53
2021/12/08 03:24:32;;;;;;;9.82;2.38;;;;;;;5.88;100.00;99248.72;4963983;28;20047;-50
2021/12/08 03:27:27;;;;;;;4.88;1.80;;;;;;;5.90;100.00;99249.25;4974895;28;20105;-49
2021/12/08 03:30:25;;;;;;;4.18;2.20;;;;;;;5.94;100.00;99255.78;4974748;28;20062;-50
2021/12/08 03:33:13;;;;;;;3.67;1.88;;;;;;;5.95;100.00;99257.38;4972818;28;20111;-48
2021/12/08 03:36:02;;;;;;;5.47;2.00;;;;;;;6.03;100.00;99266.81;4973140;28;20055;-48
2021/12/08 03:38:49;;;;;;;3.33;1.63;;;;;;;6.04;100.00;99256.78;4973384;28;20051;-50
2021/12/08 03:41:40;;;;;;;6.28;2.40;;;;;;;6.13;100.00;99257.84;4973325;28;20065;-48
2021/12/08 03:44:28;;;;;;;4.57;1.70;;;;;;;6.15;100.00;99252.97;4963558;28;20089;-47
2021/12/08 03:47:18;;;;;;;4.18;1.83;;;;;;;6.37;100.00;99255.28;4953881;29;20059;-50
2021/12/08 03:50:08;;;;;;;6.07;2.45;;;;;;;6.37;100.00;99258.84;4954764;28;20106;-49
2021/12/08 03:52:56;;;;;;;8.45;2.25;;;;;;;6.37;100.00;99256.13;4965346;28;20109;-53
2021/12/08 03:55:47;;;;;;;5.95;2.05;;;;;;;6.25;100.00;99260.22;4972534;28;20043;-47
2021/12/08 03:58:35;;;;;;;5.47;2.25;;;;;;;6.18;100.00;99274.03;4971854;28;20043;-50
2021/12/08 04:01:22;;;;;;;6.80;2.03;;;;;;;6.05;100.00;99274.66;4972039;28;20051;-49
2021/12/08 04:04:11;;;;;;;3.88;1.75;;;;;;;5.97;100.00;99273.34;4974383;28;20097;-51
2021/12/08 04:07:02;;;;;;;11.15;2.60;;;;;;;5.99;100.00;99276.56;4970823;28;20053;-49
2021/12/08 04:09:50;;;;;;;5.60;1.83;;;;;;;5.95;100.00;99280.91;4972978;28;20062;-48
2021/12/08 04:12:38;;;;;;;5.07;2.08;;;;;;;5.97;100.00;99279.53;4972936;28;20053;-48
2021/12/08 04:15:26;;;;;;;7.00;2.28;;;;;;;5.97;100.00;99290.34;4974023;28;20050;-48
2021/12/08 04:18:14;;;;;;;8.40;2.40;;;;;;;5.91;100.00;99286.00;4969708;28;20061;-49
2021/12/08 04:21:04;;;;;;;7.93;2.38;;;;;;;5.89;100.00;99287.38;4971527;28;20546;-48
2021/12/08 04:23:52;;;;;;;6.78;2.22;;;;;;;5.84;100.00;99285.47;4953401;29;20058;-46
2021/12/08 04:26:57;;;;;;;6.63;2.38;;;;;;;5.92;100.00;99287.66;4954310;28;20070;-45
2021/12/08 04:29:48;;;;;;;6.68;2.33;;;;;;;5.88;100.00;99289.25;4953660;29;20110;-48
2021/12/08 04:32:36;;;;;;;8.43;2.08;;;;;;;5.86;100.00;99294.13;4953511;29;20094;-49
2021/12/08 04:35:25;;;;;;;6.50;2.22;;;;;;;5.86;100.00;99294.13;4952858;29;20055;-47
2021/12/08 04:38:18;;;;;;;5.30;1.83;;;;;;;5.87;100.00;99295.78;4954236;28;20051;-44
2021/12/08 04:41:11;;;;;;;4.72;1.80;;;;;;;5.89;100.00;99299.00;4955898;28;20058;-45
2021/12/08 04:44:09;;;;;;;5.72;2.28;;;;;;;5.86;100.00;99302.25;4973988;28;20043;-49
2021/12/08 04:47:17;;;;;;;4.80;1.88;;;;;;;5.86;100.00;99294.13;4973619;28;20042;-48
2021/12/08 04:50:34;;;;;;;5.68;2.00;;;;;;;5.82;100.00;99297.66;4963060;28;20370;-46
2021/12/08 05:09:26;;;;;;;7.40;2.38;;;;;;;5.92;100.00;99311.97;4875432;29;20057;-47
2021/12/08 05:12:18;;;;;;;6.97;2.25;;;;;;;5.86;100.00;99326.56;4877531;29;20057;-52
2021/12/08 05:15:15;;;;;;;7.70;2.40;;;;;;;5.93;100.00;99327.09;4879664;29;20076;-46
2021/12/08 05:18:13;;;;;;;4.55;2.00;;;;;;;5.88;100.00;99324.41;4878365;29;20112;-47
2021/12/08 05:21:16;;;;;;;7.25;2.42;;;;;;;5.87;100.00;99328.22;4878917;29;20060;-47
2021/12/08 05:24:28;;;;;;;7.00;2.50;;;;;;;5.84;100.00;99326.03;4879013;29;20092;-49
2021/12/08 05:27:16;;;;;;;7.30;2.40;;;;;;;5.80;100.00;99335.78;4879226;29;20061;-50
2021/12/08 05:30:12;;;;;;;3.50;1.70;;;;;;;5.84;100.00;99333.34;4879699;29;20539;-53
2021/12/08 05:33:00;;;;;;;;;;;;;;;5.95;100.00;99335.78;4886121;29;20083;-54
2021/12/08 05:35:48;;;;;;;8.45;2.42;;;;;;;5.92;100.00;99341.72;4897603;29;19927;-51
2021/12/08 05:38:36;;;;;;;15.98;2.50;;;;;;;5.92;100.00;99336.31;4896968;29;20131;-51
2021/12/08 05:41:30;;;;;;;7.05;2.35;;;;;;;5.93;100.00;99339.81;4961066;28;20528;-50
2021/12/08 05:44:10;;;;;;;6.57;2.47;;;;;;;5.87;100.00;99349.00;4957089;28;20047;-47
2021/12/08 05:47:02;;;;;;;4.60;2.05;;;;;;;5.86;100.00;99342.78;4956371;29;20297;-45
2021/12/08 05:49:50;;;;;;;6.13;2.25;;;;;;;5.88;100.00;99356.84;4956456;28;20106;-46
2021/12/08 05:52:38;;;;;;;4.50;2.13;;;;;;;5.89;100.00;99347.66;4938168;28;20506;-49
2021/12/08 05:55:26;;;;;;;5.55;2.33;;;;;;;5.89;100.00;99369.28;4936502;29;20051;-49
2021/12/08 05:58:16;;;;;;;6.28;2.17;;;;;;;5.93;100.00;99359.53;4936530;29;20118;-49
2021/12/08 06:01:11;;;;;;;5.43;1.98;;;;;;;6.10;100.00;99361.97;4942206;28;20054;-50
2021/12/08 06:03:59;;;;;;;6.78;2.20;;;;;;;6.12;100.00;99361.69;4955914;29;20047;-50
2021/12/08 06:06:47;;;;;;;6.90;1.65;;;;;;;6.32;100.00;99361.63;4957147;29;20051;-55
2021/12/08 06:09:36;;;;;;;5.95;1.92;;;;;;;6.56;100.00;99371.81;4956441;29;20051;-46
2021/12/08 06:12:25;;;;;;;5.43;2.13;;;;;;;6.57;100.00;99366.13;4956187;28;20429;-47
2021/12/08 06:15:13;;;;;;;4.50;1.67;;;;;;;6.49;100.00;99365.91;4955567;28;20557;-53
2021/12/08 06:18:01;;;;;;;5.22;1.85;;;;;;;6.32;100.00;99377.03;4955723;29;20494;-54
2021/12/08 06:20:56;;;;;;;5.15;2.13;;;;;;;6.54;100.00;99384.81;4955209;29;20580;-49
2021/12/08 06:23:44;;;;;;;7.28;2.53;;;;;;;6.68;100.00;99380.44;4968202;28;20059;-50
2021/12/08 06:26:33;;;;;;;7.18;2.25;;;;;;;6.67;100.00;99378.81;4973884;28;20501;-46
2021/12/08 06:29:20;;;;;;;6.18;2.20;;;;;;;7.18;100.00;99389.34;4955232;29;20466;-51
2021/12/08 06:32:10;;;;;;;3.83;1.73;;;;;;;7.49;100.00;99399.19;4956151;28;20047;-49
2021/12/08 06:34:59;;;;;;;6.32;1.60;;;;;;;7.61;100.00;99408.56;4974805;28;20520;-48
2021/12/08 06:37:47;;;;;;;5.65;2.20;;;;;;;7.47;100.00;99402.16;4975381;28;20058;-51
2021/12/08 06:40:47;;;;;;;3.88;1.95;;;;;;;7.43;100.00;99411.94;4612175;28;9999805;-52
2021/12/08 06:43:42;;;;;;;4.32;1.50;;;;;;;7.62;100.00;99415.59;4953928;28;20439;-49
2021/12/08 06:46:45;;;;;;;3.47;1.85;;;;;;;7.72;100.00;99414.75;4937602;29;20063;-51
2021/12/08 06:49:41;;;;;;;7.60;2.17;;;;;;;7.54;100.00;99413.50;4904634;29;20051;-47
2021/12/08 06:52:31;;;;;;;4.20;1.85;;;;;;;7.50;100.00;99409.72;4951896;28;20051;-44
2021/12/08 06:55:27;;;;;;;5.82;2.20;;;;;;;7.59;100.00;99405.31;4970532;28;20058;-51
2021/12/08 06:58:19;;;;;;;4.60;1.70;;;;;;;8.13;100.00;99413.53;4971940;28;20057;-52
2021/12/08 07:01:49;;;;;;;3.38;1.85;;;;;;;7.92;99.12;99405.59;4972769;28;20161;-51
2021/12/08 07:04:56;;;;;;;6.95;2.30;;;;;;;8.10;98.44;99399.47;4947144;28;20108;-49
2021/12/08 07:07:45;;;;;;;12.38;3.38;;;;;;;7.56;96.61;99396.97;4954100;28;20665;-50
2021/12/08 07:10:43;;;;;;;11.68;1.88;;;;;;;7.52;99.41;99393.19;4954261;28;20141;-50
2021/12/08 07:13:33;;;;;;;3.60;1.75;;;;;;;7.61;100.00;99396.94;4955233;28;20134;-50
2021/12/08 07:16:44;;;;;;;6.45;2.13;;;;;;;7.30;100.00;99413.41;4936706;28;20430;-47
2021/12/08 07:19:43;;;;;;;10.65;3.08;;;;;;;7.33;100.00;99422.84;4954689;28;20058;-47
2021/12/08 07:22:34;;;;;;;4.63;1.92;;;;;;;7.32;100.00;99429.38;4950446;29;20557;-51
2021/12/08 07:25:25;;;;;;;6.40;2.30;;;;;;;7.40;99.00;99445.03;4951684;28;20053;-50
2021/12/08 07:28:15;;;;;;;5.30;1.95;;;;;;;7.06;100.00;99451.19;4974000;28;20051;-48
2021/12/08 07:31:24;;;;;;;7.28;2.50;;;;;;;7.24;100.00;99447.03;4954617;29;20068;-50
2021/12/08 07:34:18;;;;;;;5.50;1.77;;;;;;;7.19;100.00;99447.03;4958530;28;20074;-45
2021/12/08 07:37:14;;;;;;;5.22;1.90;;;;;;;7.40;100.00;99453.16;4972765;28;20054;-44
2021/12/08 07:40:20;;;;;;;9.02;2.65;;;;;;;6.76;99.70;99471.91;4974013;28;20047;-47
2021/12/08 07:43:12;;;;;;;8.15;2.72;;;;;;;6.44;99.18;99482.25;4972685;28;20046;-48
2021/12/08 07:46:08;;;;;;;9.68;2.88;;;;;;;6.36;100.00;99476.31;4974225;28;20501;-47
2021/12/08 07:49:00;;;;;;;7.93;2.88;;;;;;;6.33;100.00;99487.69;4974694;28;20047;-50
2021/12/08 07:51:52;;;;;;;9.57;3.10;;;;;;;6.18;100.00;99491.22;4974147;28;20461;-49
2021/12/08 07:54:41;;;;;;;10.70;2.92;;;;;;;6.09;100.00;99492.03;4954078;28;20051;-48
2021/12/08 07:57:36;;;;;;;12.90;3.50;;;;;;;5.96;98.31;99487.97;5082763;27;1965678;-48
2021/12/08 08:00:37;;;;;;;11.65;3.63;;;;;;;5.83;96.88;99489.28;5129406;28;20424;-48
2021/12/08 08:03:28;;;;;;;15.50;4.30;;;;;;;5.76;95.84;99483.34;5116502;28;20528;-48
2021/12/08 08:06:23;;;;;;;14.15;3.60;;;;;;;5.71;94.68;99477.94;5107951;28;20390;-53
2021/12/08 08:09:18;;;;;;;16.58;4.53;;;;;;;5.73;95.41;99489.28;5108965;28;20047;-48
2021/12/08 08:12:09;;;;;;;16.98;4.68;;;;;;;5.85;98.77;99486.34;5106994;28;20090;-49
2021/12/08 08:15:00;;;;;;;16.95;4.60;;;;;;;5.85;97.19;99486.34;5106842;28;20055;-48
2021/12/08 08:17:38;;;;;;;12.37;3.93;;;;;;;5.93;99.11;99481.19;5090228;28;20052;-52
2021/12/08 08:20:30;;;;;;;14.90;4.07;;;;;;;5.98;99.63;99496.63;5107603;28;20652;-50
2021/12/08 08:23:23;;;;;;;18.23;4.97;;;;;;;6.14;100.00;99513.66;5123998;27;20040;-49
2021/12/08 08:26:12;;;;;;;10.73;3.85;;;;;;;6.16;100.00;99514.22;5108424;28;20085;-53
2021/12/08 08:29:00;;;;;;;15.57;4.47;;;;;;;6.06;99.86;99506.91;5091641;28;20048;-51
2021/12/08 08:32:00;;;;;;;13.73;4.45;;;;;;;6.05;100.00;99509.88;5109295;28;20458;-49
2021/12/08 08:34:51;;;;;;;16.02;5.55;;;;;;;6.21;100.00;99514.22;5109434;28;20090;-50
2021/12/08 08:37:39;;;;;;;25.48;6.93;;;;;;;6.64;100.00;99517.41;5106280;28;20085;-47
2021/12/08 08:40:38;;;;;;;13.38;4.97;;;;;;;7.19;100.00;99503.94;5105914;28;20397;-50
2021/12/08 08:43:26;;;;;;;12.52;3.40;;;;;;;7.11;95.85;99516.16;5095164;28;20051;-50
2021/12/08 08:46:19;;;;;;;9.93;3.17;;;;;;;6.63;92.01;99510.34;5108126;28;20086;-46
2021/12/08 08:49:16;;;;;;;9.05;3.00;;;;;;;6.34;90.18;99496.59;5127120;28;20047;-48
2021/12/08 08:52:10;;;;;;;8.93;3.05;;;;;;;6.26;93.13;99497.97;5125339;28;20455;-46
2021/12/08 08:55:11;;;;;;;11.60;4.25;;;;;;;7.07;96.95;99493.44;5126372;28;20459;-49
2021/12/08 08:58:00;;;;;;;11.20;3.37;;;;;;;7.43;98.17;99482.41;5125218;28;20043;-47
2021/12/08 09:00:56;;;;;;;7.95;3.00;;;;;;;7.50;97.29;99477.47;5126363;28;20308;-48
2021/12/08 09:03:59;;;;;;;8.23;3.38;;;;;;;7.49;95.69;99481.28;5127761;28;20054;-46
2021/12/08 09:06:51;;;;;;;11.30;3.30;;;;;;;7.45;96.35;99486.44;5128019;28;20112;-45
2021/12/08 09:09:42;;;;;;;12.05;3.00;;;;;;;7.66;95.68;99487.13;5112381;28;20055;-47
2021/12/08 09:12:35;;;;;;;10.85;2.92;;;;;;;7.22;93.02;99500.69;5099804;28;20048;-49
2021/12/08 09:15:31;;;;;;;10.68;3.30;;;;;;;7.49;97.03;99494.84;5111767;28;20070;-54
2021/12/08 09:18:21;;;;;;;9.23;3.50;;;;;;;7.12;93.68;99506.13;5095411;28;20047;-50
2021/12/08 09:21:21;;;;;;;10.65;3.42;;;;;;;7.73;94.39;99496.88;5113205;28;20108;-49
2021/12/08 09:24:21;;;;;;;9.20;3.20;;;;;;;7.46;93.63;99509.78;5114027;28;20055;-48
2021/12/08 09:27:10;;;;;;;8.30;2.92;;;;;;;7.51;94.33;99510.84;5113777;28;20052;-50
2021/12/08 09:30:20;;;;;;;10.45;2.88;;;;;;;7.11;97.70;99529.69;5108559;28;20043;-48
2021/12/08 09:33:12;;;;;;;9.82;2.70;;;;;;;7.11;97.19;99531.59;5113032;28;20224;-47
2021/12/08 09:36:02;;;;;;;8.95;3.00;;;;;;;7.13;95.91;99529.44;5114988;28;20070;-45
2021/12/08 09:39:01;;;;;;;10.18;3.20;;;;;;;7.52;95.60;99543.06;5115066;28;20043;-49
2021/12/08 09:41:59;;;;;;;9.98;3.00;;;;;;;7.03;93.55;99550.06;5110493;28;20052;-50
2021/12/08 09:44:50;;;;;;;11.13;3.25;;;;;;;6.87;98.98;99550.38;5114902;28;20383;-52
2021/12/08 09:47:38;;;;;;;15.52;3.38;;;;;;;6.74;95.75;99539.03;5115098;28;20048;-51
2021/12/08 09:50:26;;;;;;;10.48;3.10;;;;;;;7.16;96.41;99537.81;5111670;28;20051;-51
2021/12/08 09:53:13;;;;;;;9.35;3.13;;;;;;;7.04;97.32;99538.13;5111079;28;20048;-48
2021/12/08 09:56:03;;;;;;;8.82;3.20;;;;;;;7.70;94.63;99544.34;5111627;28;20143;-51
2021/12/08 09:58:52;;;;;;;9.82;3.00;;;;;;;7.35;89.30;99537.19;5110943;28;20086;-46
2021/12/08 10:01:41;;;;;;;7.22;2.88;;;;;;;7.15;96.54;99519.94;5111887;28;20059;-49
2021/12/08 10:04:29;;;;;;;10.13;3.33;;;;;;;7.23;98.40;99519.34;5113208;28;20542;-49
2021/12/08 10:07:19;;;;;;;8.68;2.72;;;;;;;7.44;98.43;99503.81;5113323;28;20055;-48
2021/12/08 10:10:10;;;;;;;11.88;2.80;;;;;;;7.57;96.52;99491.53;5113957;28;20047;-51
2021/12/08 10:12:58;;;;;;;6.40;2.65;;;;;;;7.42;99.33;99497.84;5112594;28;20052;-54
2021/12/08 10:15:45;;;;;;;11.32;2.83;;;;;;;7.89;92.59;99495.69;5111252;28;20370;-51
2021/12/08 10:18:33;;;;;;;11.52;3.17;;;;;;;7.14;85.69;99507.47;5109006;28;20070;-51
2021/12/08 10:21:30;;;;;;;7.40;2.80;;;;;;;6.74;88.32;99489.50;5108051;28;20043;-48
2021/12/08 10:24:23;;;;;;;8.27;3.00;;;;;;;6.83;91.77;99485.94;5111251;28;20054;-50
2021/12/08 10:27:11;;;;;;;13.88;3.03;;;;;;;6.98;96.12;99489.69;5113719;28;20063;-51
2021/12/08 10:30:21;;;;;;;7.25;3.03;;;;;;;7.10;97.48;99487.47;5113542;28;20086;-51
2021/12/08 10:33:45;;;;;;;10.35;2.72;;;;;;;7.24;96.49;99474.94;5096924;27;20109;-49
2021/12/08 10:36:55;;;;;;;9.15;2.75;;;;;;;7.22;94.21;99477.13;5093023;28;20166;-52
2021/12/08 10:39:49;;;;;;;5.57;2.00;;;;;;;7.22;100.00;99471.69;5093746;28;20044;-50
2021/12/08 10:42:37;;;;;;;12.88;3.15;;;;;;;7.26;96.52;99477.34;5093232;28;20048;-50
2021/12/08 10:45:30;;;;;;;11.02;3.65;;;;;;;7.24;91.63;99479.56;5105395;28;20043;-49
2021/12/08 10:48:33;;;;;;;9.25;3.03;;;;;;;6.75;87.48;99467.56;5113676;28;20047;-49
2021/12/08 10:54:46;;;;;;;10.85;4.47;;;;;;;6.49;87.85;99487.66;5049393;28;20048;-53
2021/12/08 10:57:37;;;;;;;10.48;3.50;;;;;;;6.45;86.20;99492.00;5049011;28;20052;-48
2021/12/08 11:00:29;;;;;;;12.68;3.25;;;;;;;6.36;85.55;99497.97;5050508;28;20049;-54
2021/12/08 11:03:23;;;;;;;32.67;12.85;;;;;;;6.38;87.08;99498.50;5048696;28;20124;-54
2021/12/08 11:06:15;;;;;;;9.70;3.53;;;;;;;6.35;85.74;99504.47;5049120;28;20588;-50
2021/12/08 11:09:07;;;;;;;9.85;3.40;;;;;;;6.31;85.49;99506.09;5049318;28;20057;-51
2021/12/08 11:12:04;;;;;;;187.13;71.50;;;;;;;6.36;91.77;99507.97;5049948;28;20103;-57
2021/12/08 11:14:51;;;;;;;148.15;59.35;;;;;;;6.70;98.52;99501.97;5049878;28;20044;-52
2021/12/08 11:17:39;;;;;;;216.65;79.38;;;;;;;6.73;100.00;99507.63;5049165;28;20060;-46
2021/12/08 11:20:31;;;;;;;239.68;96.32;;;;;;;7.22;100.00;99520.47;5047946;28;20044;-47
2021/12/08 11:23:28;;;;;;;163.52;67.20;;;;;;;7.27;100.00;99530.47;5046691;28;20057;-51
2021/12/08 11:26:37;;;;;;;123.72;49.20;;;;;;;7.05;100.00;99547.06;4349594;28;10000711;-51
2021/12/08 11:29:27;;;;;;;178.35;71.75;;;;;;;7.16;100.00;99545.94;5086668;28;20490;-53
2021/12/08 11:32:18;;;;;;;82.18;33.97;;;;;;;7.22;100.00;99558.38;5089438;28;20100;-51
2021/12/08 11:35:19;;;;;;;123.28;45.70;;;;;;;7.06;99.45;99561.41;5088784;28;20052;-54
2021/12/08 11:38:07;;;;;;;65.43;28.63;;;;;;;7.22;100.00;99561.09;5090594;28;20084;-53
2021/12/08 11:40:55;;;;;;;91.60;39.17;;;;;;;7.38;100.00;99555.59;5091816;28;20044;-51
2021/12/08 11:43:29;;;;;;;113.45;45.42;;;;;;;7.28;100.00;99564.59;5072857;28;20597;-54
2021/12/08 11:46:18;;;;;;;84.65;35.55;;;;;;;7.24;100.00;99556.22;5089531;28;20051;-55
2021/12/08 11:49:11;;;;;;;57.47;25.67;;;;;;;7.24;100.00;99564.34;5089035;28;20055;-47
2021/12/08 11:52:10;;;;;;;155.90;60.35;;;;;;;7.20;100.00;99567.88;5075556;28;20043;-48
2021/12/08 11:55:00;;;;;;;68.72;26.15;;;;;;;7.18;100.00;99570.84;5092899;28;20071;-49
2021/12/08 11:57:54;;;;;;;40.88;17.52;;;;;;;6.96;98.01;99576.59;5105143;28;20047;-54
2021/12/08 12:00:45;;;;;;;37.20;15.70;;;;;;;7.07;99.19;99576.56;5108600;28;20048;-50
2021/12/08 12:03:32;;;;;;;28.58;12.45;;;;;;;6.95;97.28;99576.88;5107255;28;20413;-53
2021/12/08 12:06:27;;;;;;;87.75;37.45;;;;;;;7.02;100.00;99590.94;5094550;28;20044;-49
2021/12/08 12:09:15;;;;;;;16.52;5.90;;;;;;;6.81;94.97;99593.69;5094411;28;20493;-49
2021/12/08 12:12:12;;;;;;;53.95;22.60;;;;;;;6.76;97.31;99601.84;5107300;28;20040;-48
2021/12/08 12:15:00;;;;;;;28.95;12.70;;;;;;;6.70;90.03;99592.09;5103307;28;20055;-53
2021/12/08 12:17:48;;;;;;;9.45;2.78;;;;;;;6.53;89.36;99595.06;5087507;28;20044;-50
2021/12/08 12:20:39;;;;;;;8.48;3.25;;;;;;;6.45;89.73;99605.66;5088801;28;20055;-45
2021/12/08 12:23:48;;;;;;;32.50;12.25;;;;;;;6.62;93.26;99614.28;5090390;28;20120;-52
2021/12/08 12:26:57;;;;;;;121.00;46.88;;;;;;;7.02;100.00;99620.72;5087514;28;20387;-52
2021/12/08 12:30:12;;;;;;;71.20;28.77;;;;;;;7.03;100.00;99622.38;5089038;28;20086;-51
2021/12/08 12:32:56;;;;;;;53.45;21.80;;;;;;;7.02;100.00;99626.13;5088490;28;20387;-48
2021/12/08 12:35:55;;;;;;;25.65;10.35;;;;;;;6.94;99.01;99622.09;5103213;28;20081;-46
2021/12/08 12:38:43;;;;;;;65.43;28.75;;;;;;;7.07;100.00;99630.75;5108515;28;20404;-50
2021/12/08 12:41:32;;;;;;;16.88;6.53;;;;;;;6.99;99.08;99629.41;5110050;28;20434;-53
2021/12/08 12:44:21;;;;;;;11.77;3.17;;;;;;;6.77;90.99;99640.53;5082683;28;20064;-48
2021/12/08 12:47:24;;;;;;;10.07;3.40;;;;;;;6.60;90.69;99644.31;5091519;28;20058;-52
2021/12/08 12:50:21;;;;;;;9.98;3.45;;;;;;;6.49;88.42;99633.75;5077023;28;20044;-51
2021/12/08 12:53:09;;;;;;;46.35;19.73;;;;;;;6.53;92.19;99634.84;5093882;28;20051;-50
2021/12/08 12:55:56;;;;;;;35.72;12.68;;;;;;;6.58;93.52;99634.84;5091343;28;20482;-51
2021/12/08 12:58:50;;;;;;;33.15;12.18;;;;;;;6.77;99.28;99629.72;5092768;28;20051;-52
2021/12/08 13:01:44;;;;;;;52.05;20.45;;;;;;;7.19;100.00;99629.38;5096143;28;20052;-52
2021/12/08 13:04:35;;;;;;;21.90;8.20;;;;;;;7.21;98.14;99637.22;5094796;28;20135;-47
2021/12/08 13:07:13;;;;;;;14.90;5.97;;;;;;;7.08;95.10;99633.19;5076769;28;20044;-52
2021/12/08 13:10:11;;;;;;;34.72;13.98;;;;;;;7.07;97.65;99631.56;5077366;28;20083;-50
2021/12/08 13:13:18;;;;;;;26.27;10.25;;;;;;;7.07;97.90;99637.00;5092800;28;20288;-51
2021/12/08 13:16:31;;;;;;;27.95;10.52;;;;;;;7.21;97.02;99632.59;5094359;28;20047;-51
2021/12/08 13:19:19;;;;;;;36.38;14.90;;;;;;;7.25;99.08;99639.09;5093838;28;20056;-49
2021/12/08 13:21:52;;;;;;;25.90;9.00;;;;;;;7.27;94.38;99646.16;5064061;28;20048;-53
2021/12/08 13:24:42;;;;;;;16.10;6.55;;;;;;;7.05;93.50;99644.56;5113139;28;20059;-52
2021/12/08 13:27:30;;;;;;;17.00;5.60;;;;;;;6.89;91.32;99651.09;5113612;28;20057;-50
2021/12/08 13:30:19;;;;;;;11.38;4.03;;;;;;;6.84;89.21;99651.91;5115213;28;20047;-47
2021/12/08 13:33:26;;;;;;;14.20;4.28;;;;;;;6.89;90.93;99662.72;5111780;28;20082;-47
2021/12/08 13:36:23;;;;;;;14.00;5.10;;;;;;;6.72;88.73;99663.00;5099000;28;20055;-52
2021/12/08 13:39:21;;;;;;;39.75;14.73;;;;;;;6.96;97.91;99670.59;5098965;28;20063;-52
2021/12/08 13:42:29;;;;;;;16.10;6.57;;;;;;;7.24;95.81;99674.59;5111275;28;20071;-49
2021/12/08 13:45:18;;;;;;;28.67;11.98;;;;;;;7.19;97.94;99670.00;5111729;28;20052;-48
2021/12/08 13:48:05;;;;;;;20.15;7.85;;;;;;;7.24;97.30;99666.47;5115308;28;20047;-45
2021/12/08 13:50:53;;;;;;;15.85;7.25;;;;;;;7.27;98.23;99675.97;5114950;28;20043;-46
2021/12/08 13:53:44;;;;;;;16.23;6.35;;;;;;;7.18;89.35;99678.41;5112514;28;20039;-50
2021/12/08 13:56:41;;;;;;;12.90;4.38;;;;;;;7.02;89.53;99680.31;5109670;28;20056;-46
2021/12/08 14:00:07;;;;;;;23.92;9.07;;;;;;;6.81;88.20;99677.63;5112011;28;20512;-48
2021/12/08 14:03:12;;;;;;;19.20;7.97;;;;;;;6.98;94.38;99676.53;5111740;28;20097;-48
2021/12/08 14:06:00;;;;;;;11.77;3.72;;;;;;;6.81;89.58;99676.81;5108949;28;20429;-49
2021/12/08 14:08:50;;;;;;;18.10;6.88;;;;;;;6.85;90.03;99683.28;5112623;28;20052;-51
2021/12/08 14:11:37;;;;;;;11.15;3.67;;;;;;;6.81;89.72;99683.03;5095676;28;20056;-48